createdAt,value
2023-03-19T00:01:54.291Z,24.85
2023-03-19T00:04:22.283Z,22.05
2023-03-19T00:06:49.433Z,21.70
2023-03-19T00:09:16.611Z,16.42
2023-03-19T00:11:43.769Z,21.50
2023-03-19T00:14:11.500Z,22.20
2023-03-19T00:16:38.821Z,17.67
2023-03-19T00:19:06.094Z,18.85
2023-03-19T00:21:33.255Z,18.98
2023-03-19T00:24:02.676Z,22.10
2023-03-19T00:26:30.865Z,20.10
2023-03-19T00:28:57.998Z,20.02
2023-03-19T00:31:25.546Z,17.02
2023-03-19T00:33:53.153Z,15.27
2023-03-19T00:36:21.659Z,18.52
2023-03-19T00:38:49.071Z,17.90
2023-03-19T00:41:18.275Z,17.10
2023-03-19T00:43:46.293Z,17.17
2023-03-19T00:46:13.609Z,15.07
2023-03-19T00:48:40.876Z,13.32
2023-03-19T00:51:10.037Z,17.95
2023-03-19T00:53:42.164Z,13.20
2023-03-19T00:56:13.965Z,17.15
2023-03-19T00:58:41.377Z,18.08
2023-03-19T01:01:09.237Z,16.17
2023-03-19T01:03:36.697Z,18.02
2023-03-19T01:06:05.048Z,15.88
2023-03-19T01:08:32.560Z,19.05
2023-03-19T01:11:26.127Z,12.93
2023-03-19T01:13:53.563Z,18.70
2023-03-19T01:16:20.842Z,18.40
2023-03-19T01:18:48.015Z,15.88
2023-03-19T01:21:15.237Z,17.00
2023-03-19T01:23:42.383Z,13.80
2023-03-19T01:26:09.535Z,15.55
2023-03-19T01:28:36.766Z,15.55
2023-03-19T01:31:07.061Z,19.60
2023-03-19T01:33:34.255Z,15.32
2023-03-19T01:36:05.562Z,14.27
2023-03-19T01:38:32.922Z,17.55
2023-03-19T01:41:00.123Z,12.98
2023-03-19T01:43:28.397Z,13.38
2023-03-19T01:46:15.857Z,12.60
2023-03-19T01:48:59.837Z,14.48
2023-03-19T01:51:29.394Z,11.57
2023-03-19T01:53:59.482Z,11.63
2023-03-19T01:56:33.734Z,12.48
2023-03-19T01:59:23.726Z,9.27
2023-03-19T02:01:54.443Z,10.77
2023-03-19T02:04:21.681Z,13.57
2023-03-19T02:06:48.862Z,11.88
2023-03-19T02:09:16.110Z,10.32
2023-03-19T02:11:43.675Z,10.73
2023-03-19T02:14:12.396Z,12.40
2023-03-19T02:16:40.105Z,12.77
2023-03-19T02:19:10.867Z,14.00
2023-03-19T02:21:38.186Z,10.30
2023-03-19T02:24:20.817Z,11.27
2023-03-19T02:26:48.360Z,11.95
2023-03-19T02:29:15.528Z,11.68
2023-03-19T02:31:42.917Z,12.60
2023-03-19T02:34:11.540Z,9.57
2023-03-19T02:36:58.994Z,10.75
2023-03-19T02:39:32.380Z,10.77
2023-03-19T02:41:59.973Z,11.07
2023-03-19T02:44:27.297Z,9.00
2023-03-19T02:46:54.587Z,11.85
2023-03-19T02:49:21.820Z,13.02
2023-03-19T02:51:49.040Z,13.02
2023-03-19T02:54:16.218Z,12.40
2023-03-19T02:56:43.361Z,10.85
2023-03-19T02:59:10.567Z,8.57
2023-03-19T03:01:37.775Z,9.98
2023-03-19T03:04:05.361Z,10.07
2023-03-19T03:06:32.589Z,14.15
2023-03-19T03:08:59.749Z,10.63
2023-03-19T03:11:27.114Z,9.30
2023-03-19T03:13:54.325Z,9.65
2023-03-19T03:16:21.773Z,9.95
2023-03-19T03:18:49.035Z,11.32
2023-03-19T03:21:19.983Z,9.32
2023-03-19T03:23:47.162Z,9.75
2023-03-19T03:26:14.602Z,13.10
2023-03-19T03:28:41.834Z,8.65
2023-03-19T03:31:09.164Z,10.10
2023-03-19T03:33:36.769Z,6.75
2023-03-19T03:36:04.137Z,7.25
2023-03-19T03:38:32.857Z,11.30
2023-03-19T03:41:00.122Z,10.50
2023-03-19T03:43:27.557Z,8.27
2023-03-19T03:45:54.836Z,8.70
2023-03-19T03:48:22.057Z,8.30
2023-03-19T03:50:49.730Z,10.80
2023-03-19T03:53:16.964Z,8.30
2023-03-19T03:55:44.121Z,8.13
2023-03-19T03:58:14.534Z,8.50
2023-03-19T04:00:41.734Z,14.43
2023-03-19T04:03:09.003Z,8.98
2023-03-19T04:05:37.750Z,11.15
2023-03-19T04:08:05.375Z,8.80
2023-03-19T04:10:33.452Z,9.23
2023-03-19T04:13:01.433Z,6.28
2023-03-19T04:15:28.607Z,9.75
2023-03-19T04:17:55.787Z,10.80
2023-03-19T04:20:23.702Z,7.47
2023-03-19T04:22:50.973Z,9.35
2023-03-19T04:25:18.475Z,10.48
2023-03-19T04:27:46.179Z,7.88
2023-03-19T04:30:13.738Z,6.75
2023-03-19T04:32:40.947Z,9.23
2023-03-19T04:35:08.288Z,11.25
2023-03-19T04:37:35.559Z,9.52
2023-03-19T04:40:02.835Z,11.98
2023-03-19T04:42:30.032Z,9.00
2023-03-19T04:44:57.244Z,10.65
2023-03-19T04:47:24.399Z,13.98
2023-03-19T04:49:51.535Z,12.95
2023-03-19T04:52:18.890Z,11.38
2023-03-19T04:54:46.037Z,7.95
2023-03-19T04:57:13.318Z,10.93
2023-03-19T04:59:40.505Z,6.80
2023-03-19T05:02:07.863Z,8.27
2023-03-19T05:04:35.109Z,12.93
2023-03-19T05:07:02.285Z,6.93
2023-03-19T05:09:30.867Z,7.20
2023-03-19T05:11:58.704Z,9.02
2023-03-19T05:14:25.897Z,10.10
2023-03-19T05:16:53.044Z,8.25
2023-03-19T05:19:20.206Z,7.10
2023-03-19T05:21:47.529Z,8.60
2023-03-19T05:24:14.764Z,8.15
2023-03-19T05:26:41.941Z,10.73
2023-03-19T05:29:10.956Z,8.43
2023-03-19T05:31:38.865Z,8.80
2023-03-19T05:34:06.295Z,6.82
2023-03-19T05:36:33.469Z,9.52
2023-03-19T05:39:00.692Z,7.20
2023-03-19T05:41:27.890Z,8.45
2023-03-19T05:43:55.047Z,6.57
2023-03-19T05:46:22.395Z,7.18
2023-03-19T05:48:49.597Z,9.55
2023-03-19T05:51:16.838Z,8.25
2023-03-19T05:53:43.971Z,12.60
2023-03-19T05:56:11.786Z,6.95
2023-03-19T05:58:39.173Z,6.82
2023-03-19T06:01:06.364Z,8.52
2023-03-19T06:03:33.630Z,8.10
2023-03-19T06:06:01.292Z,11.35
2023-03-19T06:08:28.606Z,8.43
2023-03-19T06:10:55.750Z,10.40
2023-03-19T06:13:22.936Z,10.32
2023-03-19T06:15:50.373Z,11.80
2023-03-19T06:18:17.838Z,11.73
2023-03-19T06:20:45.503Z,7.60
2023-03-19T06:23:15.802Z,12.13
2023-03-19T06:25:43.499Z,10.60
2023-03-19T06:28:10.925Z,12.20
2023-03-19T06:30:38.302Z,13.38
2023-03-19T06:33:05.530Z,11.63
2023-03-19T06:35:32.783Z,10.20
2023-03-19T06:37:59.954Z,14.00
2023-03-19T06:40:27.119Z,13.23
2023-03-19T06:42:54.580Z,10.43
2023-03-19T06:45:21.843Z,13.70
2023-03-19T06:47:49.578Z,12.43
2023-03-19T06:50:18.223Z,10.45
2023-03-19T06:52:45.964Z,11.25
2023-03-19T06:55:13.271Z,12.77
2023-03-19T06:57:40.449Z,11.27
2023-03-19T07:00:10.450Z,10.80
2023-03-19T07:02:37.699Z,11.60
2023-03-19T07:05:05.448Z,11.52
2023-03-19T07:07:32.637Z,10.52
2023-03-19T07:09:59.824Z,12.18
2023-03-19T07:12:29.681Z,11.68
2023-03-19T07:14:57.103Z,10.13
2023-03-19T07:17:25.027Z,9.35
2023-03-19T07:19:52.277Z,15.90
2023-03-19T07:22:19.451Z,12.48
2023-03-19T07:24:46.617Z,13.43
2023-03-19T07:27:13.779Z,9.88
2023-03-19T07:29:41.071Z,10.52
2023-03-19T07:32:08.383Z,9.90
2023-03-19T07:34:35.695Z,11.65
2023-03-19T07:37:02.821Z,11.15
2023-03-19T07:39:30.020Z,9.10
2023-03-19T07:41:57.184Z,12.95
2023-03-19T07:44:24.341Z,8.65
2023-03-19T07:46:51.607Z,10.13
2023-03-19T07:49:18.738Z,9.68
2023-03-19T07:51:46.503Z,7.63
2023-03-19T07:54:13.763Z,6.75
2023-03-19T07:56:41.120Z,8.77
2023-03-19T07:59:08.582Z,6.03
2023-03-19T08:01:37.184Z,6.10
2023-03-19T08:04:04.394Z,6.57
2023-03-19T08:06:31.546Z,11.07
2023-03-19T08:08:58.697Z,7.28
2023-03-19T08:11:26.193Z,6.20
2023-03-19T08:13:53.348Z,8.63
2023-03-19T08:16:20.485Z,6.20
2023-03-19T08:18:47.645Z,7.28
2023-03-19T08:21:14.870Z,6.35
2023-03-19T08:23:42.417Z,8.00
2023-03-19T08:26:09.579Z,6.43
2023-03-19T08:28:37.435Z,6.15
2023-03-19T08:31:11.851Z,5.50
2023-03-19T08:33:39.452Z,5.13
2023-03-19T08:36:10.687Z,9.30
2023-03-19T08:38:38.008Z,7.30
2023-03-19T08:41:06.280Z,8.13
2023-03-19T08:43:34.454Z,4.90
2023-03-19T08:46:02.057Z,6.10
2023-03-19T08:48:29.475Z,6.18
2023-03-19T08:51:00.848Z,7.00
2023-03-19T08:53:28.233Z,6.53
2023-03-19T08:55:56.498Z,5.50
2023-03-19T08:58:24.346Z,6.80
2023-03-19T09:00:51.803Z,5.63
2023-03-19T09:03:19.002Z,4.68
2023-03-19T09:05:46.194Z,4.03
2023-03-19T09:08:13.646Z,8.00
2023-03-19T09:10:41.025Z,6.70
2023-03-19T09:13:08.151Z,5.05
2023-03-19T09:15:35.631Z,5.90
2023-03-19T09:18:03.290Z,4.80
2023-03-19T09:20:30.457Z,5.10
2023-03-19T09:22:57.601Z,6.93
2023-03-19T09:25:24.779Z,5.05
2023-03-19T09:27:51.926Z,5.97
2023-03-19T09:30:19.091Z,7.28
2023-03-19T09:32:46.473Z,3.65
2023-03-19T09:35:13.696Z,4.50
2023-03-19T09:37:41.363Z,6.05
2023-03-19T09:40:09.661Z,6.55
2023-03-19T09:42:39.869Z,5.25
2023-03-19T09:45:13.284Z,4.72
2023-03-19T09:47:41.849Z,6.88
2023-03-19T09:50:15.025Z,4.70
2023-03-19T09:52:42.190Z,5.32
2023-03-19T09:55:25.043Z,5.25
2023-03-19T09:57:56.935Z,5.63
2023-03-19T10:00:28.736Z,4.53
2023-03-19T10:02:59.653Z,5.53
2023-03-19T10:05:51.515Z,5.22
2023-03-19T10:08:18.616Z,7.10
2023-03-19T10:10:45.762Z,3.65
2023-03-19T10:13:31.748Z,7.25
2023-03-19T10:16:00.731Z,3.75
2023-03-19T10:18:36.716Z,4.90
2023-03-19T10:21:06.583Z,7.93
2023-03-19T10:23:42.787Z,4.13
2023-03-19T10:26:14.014Z,5.13
2023-03-19T10:28:43.828Z,5.82
2023-03-19T10:31:18.939Z,3.47
2023-03-19T10:33:51.878Z,5.38
2023-03-19T10:36:20.834Z,3.78
2023-03-19T10:38:48.035Z,4.22
2023-03-19T10:41:30.944Z,3.78
2023-03-19T10:44:01.542Z,3.10
2023-03-19T10:46:28.689Z,4.85
2023-03-19T10:48:55.946Z,3.83
2023-03-19T10:51:27.614Z,4.90
2023-03-19T10:53:56.913Z,2.65
2023-03-19T10:56:25.977Z,5.80
2023-03-19T10:59:02.355Z,3.65
2023-03-19T11:01:32.905Z,4.80
2023-03-19T11:04:00.842Z,3.35
2023-03-19T11:06:35.486Z,2.85
2023-03-19T11:09:13.667Z,3.42
2023-03-19T11:11:43.860Z,5.57
2023-03-19T11:14:13.826Z,5.97
2023-03-19T11:16:56.831Z,2.72
2023-03-19T11:19:26.259Z,6.90
2023-03-19T11:22:04.034Z,3.70
2023-03-19T11:24:35.251Z,2.60
2023-03-19T11:27:04.023Z,4.80
2023-03-19T11:29:31.761Z,3.45
2023-03-19T11:32:20.372Z,3.47
2023-03-19T11:34:48.082Z,2.58
2023-03-19T11:37:28.560Z,2.30
2023-03-19T11:40:14.530Z,3.42
2023-03-19T11:42:46.347Z,5.88
2023-03-19T11:45:36.975Z,6.38
2023-03-19T11:48:17.450Z,6.38
2023-03-19T11:50:53.422Z,3.25
2023-03-19T11:53:36.334Z,3.53
2023-03-19T11:56:07.985Z,2.13
2023-03-19T11:58:38.289Z,3.67
2023-03-19T12:01:11.745Z,3.60
2023-03-19T12:03:41.771Z,2.70
2023-03-19T12:06:27.516Z,2.92
2023-03-19T12:08:57.826Z,3.45
2023-03-19T12:11:25.388Z,2.60
2023-03-19T12:13:56.532Z,2.95
2023-03-19T12:16:26.762Z,3.88
2023-03-19T12:19:03.048Z,4.03
2023-03-19T12:21:36.124Z,3.25
2023-03-19T12:24:05.534Z,5.30
2023-03-19T12:26:39.156Z,3.58
2023-03-19T12:29:22.161Z,2.85
2023-03-19T12:32:07.892Z,5.05
2023-03-19T12:34:38.184Z,2.97
2023-03-19T12:37:29.275Z,5.38
2023-03-19T12:40:06.837Z,3.28
2023-03-19T12:42:37.066Z,2.13
2023-03-19T12:45:04.911Z,4.55
2023-03-19T12:47:38.572Z,2.80
2023-03-19T12:50:08.718Z,3.97
2023-03-19T12:52:39.482Z,2.47
2023-03-19T12:55:06.721Z,5.03
2023-03-19T12:57:46.358Z,3.28
2023-03-19T13:00:14.020Z,2.10
2023-03-19T13:03:00.137Z,4.57
2023-03-19T13:05:37.185Z,4.82
2023-03-19T13:08:23.568Z,3.83
2023-03-19T13:10:50.941Z,4.38
2023-03-19T13:13:37.304Z,2.80
2023-03-19T13:16:08.418Z,5.45
2023-03-19T13:18:48.778Z,3.97
2023-03-19T13:21:23.672Z,2.53
2023-03-19T13:26:18.757Z,2.10
2023-03-19T13:29:04.455Z,2.47
2023-03-19T13:31:35.151Z,2.05
2023-03-19T13:34:03.080Z,3.03
2023-03-19T13:36:30.959Z,3.95
2023-03-19T13:38:59.538Z,3.00
2023-03-19T13:41:37.075Z,3.15
2023-03-19T13:44:22.621Z,2.28
2023-03-19T13:46:50.212Z,2.15
2023-03-19T13:49:20.754Z,3.08
2023-03-19T13:51:51.767Z,3.47
2023-03-19T13:54:25.279Z,2.30
2023-03-19T13:57:02.416Z,3.03
2023-03-19T13:59:31.238Z,2.92
2023-03-19T14:01:59.083Z,4.38
2023-03-19T14:04:30.822Z,3.72
2023-03-19T14:07:16.588Z,2.63
2023-03-19T14:09:45.643Z,2.92
2023-03-19T14:12:18.815Z,4.15
2023-03-19T14:14:57.601Z,3.28
2023-03-19T14:17:31.722Z,2.60
2023-03-19T14:20:07.944Z,4.75
2023-03-19T14:22:41.203Z,9.80
2023-03-19T14:25:19.619Z,3.67
2023-03-19T14:27:48.845Z,3.08
2023-03-19T14:30:33.155Z,2.72
2023-03-19T14:33:02.417Z,5.00
2023-03-19T14:35:30.876Z,6.50
2023-03-19T14:37:58.083Z,3.25
2023-03-19T14:40:27.071Z,2.75
2023-03-19T14:43:00.047Z,4.65
2023-03-19T14:45:42.458Z,4.05
2023-03-19T14:48:09.633Z,5.43
2023-03-19T14:50:43.134Z,5.00
2023-03-19T14:53:17.195Z,7.75
2023-03-19T14:55:48.329Z,4.77
2023-03-19T14:58:15.480Z,2.92
2023-03-19T15:00:44.943Z,2.83
2023-03-19T15:03:21.485Z,4.15
2023-03-19T15:05:50.440Z,5.32
2023-03-19T15:08:22.246Z,3.40
2023-03-19T15:10:58.738Z,3.50
2023-03-19T15:13:31.013Z,4.25
2023-03-19T15:16:04.072Z,3.90
2023-03-19T15:18:31.667Z,4.28
2023-03-19T15:20:59.275Z,4.13
2023-03-19T15:23:28.399Z,3.97
2023-03-19T15:26:03.159Z,3.42
2023-03-19T15:28:33.074Z,3.05
2023-03-19T15:31:21.848Z,4.65
2023-03-19T15:33:52.910Z,3.20
2023-03-19T15:36:26.806Z,3.05
2023-03-19T15:38:56.980Z,5.07
2023-03-19T15:41:25.736Z,3.58
2023-03-19T15:43:53.054Z,4.05
2023-03-19T15:46:24.234Z,5.72
2023-03-19T15:48:53.445Z,3.70
2023-03-19T15:51:21.511Z,3.85
2023-03-19T15:53:49.088Z,6.63
2023-03-19T15:56:18.197Z,3.15
2023-03-19T15:58:47.607Z,2.65
2023-03-19T16:01:15.964Z,2.97
2023-03-19T16:03:44.828Z,4.32
2023-03-19T16:06:27.173Z,3.90
2023-03-19T16:08:56.675Z,6.15
2023-03-19T16:11:29.040Z,6.78
2023-03-19T16:14:00.453Z,5.38
2023-03-19T16:16:32.171Z,3.30
2023-03-19T16:18:59.842Z,3.97
2023-03-19T16:21:34.413Z,6.35
2023-03-19T16:24:10.510Z,4.05
2023-03-19T16:26:38.879Z,2.47
2023-03-19T16:29:09.463Z,3.97
2023-03-19T16:31:45.775Z,2.72
2023-03-19T16:34:26.596Z,5.47
2023-03-19T16:36:53.712Z,3.38
2023-03-19T16:39:35.075Z,5.65
2023-03-19T16:42:11.591Z,2.97
2023-03-19T16:44:43.755Z,3.63
2023-03-19T16:47:11.334Z,3.92
2023-03-19T16:49:38.563Z,3.88
2023-03-19T16:52:06.577Z,3.90
2023-03-19T16:54:33.866Z,6.63
2023-03-19T16:57:01.233Z,3.60
2023-03-19T16:59:29.736Z,5.03
2023-03-19T17:01:57.107Z,5.93
2023-03-19T17:04:25.408Z,6.47
2023-03-19T17:06:52.554Z,6.72
2023-03-19T17:09:19.810Z,5.50
2023-03-19T17:11:47.215Z,7.45
2023-03-19T17:14:18.683Z,5.47
2023-03-19T17:16:50.549Z,7.82
2023-03-19T17:19:23.127Z,6.57
2023-03-19T17:21:53.459Z,9.23
2023-03-19T17:24:24.003Z,4.50
2023-03-19T17:26:51.416Z,5.60
2023-03-19T17:29:20.828Z,5.53
2023-03-19T17:31:48.470Z,4.93
2023-03-19T17:34:20.066Z,5.00
2023-03-19T17:36:51.789Z,5.13
2023-03-19T17:39:19.135Z,4.03
2023-03-19T17:41:46.833Z,4.32
2023-03-19T17:44:17.005Z,5.05
2023-03-19T17:46:46.430Z,5.05
2023-03-19T17:49:33.888Z,5.82
2023-03-19T17:52:01.087Z,5.72
2023-03-19T17:54:28.599Z,4.07
2023-03-19T17:56:56.351Z,5.20
2023-03-19T17:59:23.970Z,6.78
2023-03-19T18:01:52.099Z,11.23
2023-03-19T18:04:20.786Z,7.30
2023-03-19T18:06:53.953Z,4.88
2023-03-19T18:09:22.700Z,4.13
2023-03-19T18:11:49.890Z,7.13
2023-03-19T18:14:17.050Z,5.40
2023-03-19T18:16:44.470Z,6.05
2023-03-19T18:19:18.291Z,6.25
2023-03-19T18:21:45.616Z,5.70
2023-03-19T18:24:12.828Z,8.73
2023-03-19T18:26:40.234Z,6.35
2023-03-19T18:29:07.412Z,7.20
2023-03-19T18:31:34.774Z,8.98
2023-03-19T18:34:03.532Z,5.35
2023-03-19T18:36:31.841Z,9.95
2023-03-19T18:38:59.100Z,7.88
2023-03-19T18:41:29.041Z,7.03
2023-03-19T18:43:56.330Z,6.90
2023-03-19T18:46:28.728Z,7.43
2023-03-19T18:48:57.860Z,7.97
2023-03-19T18:51:25.011Z,7.30
2023-03-19T18:53:52.117Z,8.77
2023-03-19T18:56:24.949Z,6.43
2023-03-19T18:58:52.661Z,7.00
2023-03-19T19:01:20.562Z,8.88
2023-03-19T19:03:48.510Z,6.45
2023-03-19T19:06:33.345Z,9.35
2023-03-19T19:09:14.693Z,9.02
2023-03-19T19:11:42.476Z,7.57
2023-03-19T19:14:16.274Z,10.38
2023-03-19T19:16:43.610Z,9.70
2023-03-19T19:19:16.576Z,11.07
2023-03-19T19:21:43.782Z,9.65
2023-03-19T19:24:11.036Z,13.90
2023-03-19T19:26:38.282Z,12.20
2023-03-19T19:29:05.808Z,11.38
2023-03-19T19:31:34.235Z,12.95
2023-03-19T19:34:01.468Z,9.65
2023-03-19T19:36:29.089Z,11.55
2023-03-19T19:38:56.353Z,11.48
2023-03-19T19:41:27.303Z,12.98
2023-03-19T19:43:55.773Z,13.25
2023-03-19T19:46:24.727Z,12.40
2023-03-19T19:48:51.993Z,14.15
2023-03-19T19:51:20.791Z,12.32
2023-03-19T19:53:48.447Z,13.15
2023-03-19T19:56:19.767Z,10.90
2023-03-19T19:58:47.406Z,11.18
2023-03-19T20:01:18.639Z,12.40
2023-03-19T20:03:46.714Z,13.65
2023-03-19T20:06:14.278Z,16.02
2023-03-19T20:08:41.852Z,14.98
2023-03-19T20:11:19.342Z,21.98
2023-03-19T20:13:51.992Z,21.05
2023-03-19T20:16:20.190Z,20.75
2023-03-19T20:18:47.717Z,15.88
2023-03-19T20:21:16.032Z,13.50
2023-03-19T20:23:44.243Z,10.60
2023-03-19T20:26:15.434Z,11.93
2023-03-19T20:28:42.952Z,11.10
2023-03-19T20:31:16.419Z,11.35
2023-03-19T20:33:43.556Z,12.02
2023-03-19T20:36:14.542Z,14.93
2023-03-19T20:38:42.103Z,12.15
2023-03-19T20:41:18.815Z,10.50
2023-03-19T20:43:46.416Z,8.55
2023-03-19T20:46:13.697Z,8.98
2023-03-19T20:48:41.183Z,9.13
2023-03-19T20:51:08.962Z,7.82
2023-03-19T20:53:36.127Z,11.63
2023-03-19T20:56:04.872Z,12.35
2023-03-19T20:58:34.879Z,9.50
2023-03-19T21:01:02.901Z,9.07
2023-03-19T21:03:31.369Z,11.38
2023-03-19T21:06:03.440Z,5.90
2023-03-19T21:08:38.983Z,6.55
2023-03-19T21:11:11.429Z,6.97
2023-03-19T21:13:39.128Z,5.07
2023-03-19T21:16:07.042Z,7.13
2023-03-19T21:18:34.242Z,5.32
2023-03-19T21:21:01.745Z,5.63
2023-03-19T21:23:34.854Z,4.35
2023-03-19T21:26:07.166Z,5.35
2023-03-19T21:28:37.922Z,6.47
2023-03-19T21:31:06.273Z,5.13
2023-03-19T21:33:34.965Z,7.45
2023-03-19T21:36:03.466Z,6.03
2023-03-19T21:38:32.526Z,5.10
2023-03-19T21:41:04.968Z,7.35
2023-03-19T21:43:36.877Z,6.40
2023-03-19T21:46:17.472Z,8.00
2023-03-19T21:48:50.846Z,8.30
2023-03-19T21:51:18.079Z,6.28
2023-03-19T21:53:45.706Z,5.47
2023-03-19T21:56:21.817Z,7.90
2023-03-19T21:58:49.420Z,8.05
2023-03-19T22:01:18.234Z,8.10
2023-03-19T22:03:45.981Z,7.47
2023-03-19T22:06:14.076Z,9.10
2023-03-19T22:08:44.472Z,8.63
2023-03-19T22:11:17.596Z,8.98
2023-03-19T22:13:44.907Z,8.60
2023-03-19T22:16:19.997Z,7.07
2023-03-19T22:18:47.708Z,5.82
2023-03-19T22:21:19.835Z,5.78
2023-03-19T22:23:47.059Z,10.43
2023-03-19T22:26:23.371Z,8.38
2023-03-19T22:28:50.687Z,7.50
2023-03-19T22:31:17.861Z,5.20
2023-03-19T22:33:45.232Z,8.88
2023-03-19T22:36:15.880Z,4.60
2023-03-19T22:38:44.918Z,5.38
2023-03-19T22:41:19.246Z,6.63
2023-03-19T22:43:46.848Z,7.50
2023-03-19T22:46:15.461Z,5.40
2023-03-19T22:48:44.495Z,6.35
2023-03-19T22:51:15.324Z,5.80
2023-03-19T22:53:42.479Z,5.90
2023-03-19T22:56:10.782Z,5.80
2023-03-19T22:58:38.184Z,7.35
2023-03-19T23:01:20.339Z,5.85
2023-03-19T23:03:48.476Z,5.63
2023-03-19T23:06:30.096Z,5.05
2023-03-19T23:08:58.025Z,5.00
2023-03-19T23:11:25.565Z,5.88
2023-03-19T23:13:55.369Z,6.03
2023-03-19T23:16:24.720Z,6.55
2023-03-19T23:18:52.377Z,8.27
2023-03-19T23:21:20.886Z,5.28
2023-03-19T23:23:48.087Z,8.73
2023-03-19T23:26:24.284Z,8.15
2023-03-19T23:28:52.421Z,5.00
2023-03-19T23:31:20.038Z,4.30
2023-03-19T23:33:47.300Z,7.72
2023-03-19T23:36:14.722Z,6.88
2023-03-19T23:38:42.753Z,7.20
2023-03-19T23:41:20.411Z,4.20
2023-03-19T23:43:47.672Z,5.10
2023-03-19T23:46:14.999Z,5.63
2023-03-19T23:48:42.510Z,6.05
2023-03-19T23:51:14.176Z,6.07
2023-03-19T23:53:42.098Z,4.80
2023-03-19T23:56:18.542Z,6.60
2023-03-19T23:58:46.891Z,4.13
